sensor_id;sensor_type;location;lat;lon;timestamp;P1;durP1;ratioP1;P2;durP2;ratioP2
3993;SDS011;2011;48.238;13.948;2022-07-29T00:01:37;12.03;;;6.03;;
3993;SDS011;2011;48.238;13.948;2022-07-29T00:04:04;8.97;;;6.37;;
3993;SDS011;2011;48.238;13.948;2022-07-29T00:06:30;13.73;;;7.43;;
3993;SDS011;2011;48.238;13.948;2022-07-29T00:08:59;9.97;;;6.70;;
3993;SDS011;2011;48.238;13.948;2022-07-29T00:11:26;14.43;;;6.80;;
3993;SDS011;2011;48.238;13.948;2022-07-29T00:13:53;12.10;;;6.23;;
3993;SDS011;2011;48.238;13.948;2022-07-29T00:16:19;8.60;;;6.43;;
3993;SDS011;2011;48.238;13.948;2022-07-29T00:18:46;8.87;;;6.10;;
3993;SDS011;2011;48.238;13.948;2022-07-29T00:21:13;11.63;;;5.97;;
3993;SDS011;2011;48.238;13.948;2022-07-29T00:23:41;9.57;;;5.33;;
3993;SDS011;2011;48.238;13.948;2022-07-29T00:26:09;13.10;;;6.90;;
3993;SDS011;2011;48.238;13.948;2022-07-29T00:28:36;9.43;;;6.10;;
3993;SDS011;2011;48.238;13.948;2022-07-29T00:31:03;12.37;;;6.20;;
3993;SDS011;2011;48.238;13.948;2022-07-29T00:33:30;11.50;;;5.20;;
3993;SDS011;2011;48.238;13.948;2022-07-29T00:35:57;12.63;;;7.10;;
3993;SDS011;2011;48.238;13.948;2022-07-29T00:38:23;12.07;;;6.53;;
3993;SDS011;2011;48.238;13.948;2022-07-29T00:40:50;13.87;;;6.60;;
3993;SDS011;2011;48.238;13.948;2022-07-29T00:43:18;9.70;;;6.30;;
3993;SDS011;2011;48.238;13.948;2022-07-29T00:45:45;9.97;;;6.50;;
3993;SDS011;2011;48.238;13.948;2022-07-29T00:48:12;8.80;;;6.17;;
3993;SDS011;2011;48.238;13.948;2022-07-29T00:50:39;10.73;;;7.03;;
3993;SDS011;2011;48.238;13.948;2022-07-29T00:53:06;11.67;;;6.80;;
3993;SDS011;2011;48.238;13.948;2022-07-29T00:55:34;14.93;;;7.20;;
3993;SDS011;2011;48.238;13.948;2022-07-29T00:58:01;14.20;;;7.90;;
3993;SDS011;2011;48.238;13.948;2022-07-29T01:00:30;12.93;;;7.60;;
3993;SDS011;2011;48.238;13.948;2022-07-29T01:02:57;15.57;;;8.57;;
3993;SDS011;2011;48.238;13.948;2022-07-29T01:05:24;11.10;;;7.60;;
3993;SDS011;2011;48.238;13.948;2022-07-29T01:07:53;12.53;;;7.67;;
3993;SDS011;2011;48.238;13.948;2022-07-29T01:10:21;12.50;;;8.90;;
3993;SDS011;2011;48.238;13.948;2022-07-29T01:12:50;13.20;;;8.50;;
3993;SDS011;2011;48.238;13.948;2022-07-29T01:15:18;12.10;;;7.60;;
3993;SDS011;2011;48.238;13.948;2022-07-29T01:17:49;17.40;;;8.50;;
3993;SDS011;2011;48.238;13.948;2022-07-29T01:20:20;10.47;;;8.57;;
3993;SDS011;2011;48.238;13.948;2022-07-29T01:23:15;11.47;;;7.90;;
3993;SDS011;2011;48.238;13.948;2022-07-29T01:26:04;13.60;;;8.77;;
3993;SDS011;2011;48.238;13.948;2022-07-29T01:29:05;19.67;;;8.20;;
3993;SDS011;2011;48.238;13.948;2022-07-29T01:31:39;16.30;;;8.47;;
3993;SDS011;2011;48.238;13.948;2022-07-29T01:34:13;17.70;;;8.27;;
3993;SDS011;2011;48.238;13.948;2022-07-29T01:36:48;22.10;;;8.60;;
3993;SDS011;2011;48.238;13.948;2022-07-29T01:39:18;16.43;;;8.20;;
3993;SDS011;2011;48.238;13.948;2022-07-29T01:41:51;17.60;;;8.67;;
3993;SDS011;2011;48.238;13.948;2022-07-29T01:44:27;11.80;;;8.00;;
3993;SDS011;2011;48.238;13.948;2022-07-29T01:47:00;9.77;;;7.27;;
3993;SDS011;2011;48.238;13.948;2022-07-29T01:49:33;14.50;;;7.60;;
3993;SDS011;2011;48.238;13.948;2022-07-29T01:52:05;10.33;;;7.33;;
3993;SDS011;2011;48.238;13.948;2022-07-29T01:54:35;16.03;;;8.07;;
3993;SDS011;2011;48.238;13.948;2022-07-29T01:57:08;16.13;;;9.30;;
3993;SDS011;2011;48.238;13.948;2022-07-29T01:59:40;12.63;;;7.70;;
3993;SDS011;2011;48.238;13.948;2022-07-29T02:02:09;15.27;;;9.00;;
3993;SDS011;2011;48.238;13.948;2022-07-29T02:04:38;12.03;;;8.50;;
3993;SDS011;2011;48.238;13.948;2022-07-29T02:07:08;13.37;;;8.80;;
3993;SDS011;2011;48.238;13.948;2022-07-29T02:09:39;11.27;;;8.50;;
3993;SDS011;2011;48.238;13.948;2022-07-29T02:12:08;12.17;;;8.70;;
3993;SDS011;2011;48.238;13.948;2022-07-29T02:14:37;11.07;;;8.60;;
3993;SDS011;2011;48.238;13.948;2022-07-29T02:17:07;12.30;;;8.47;;
3993;SDS011;2011;48.238;13.948;2022-07-29T02:19:35;10.20;;;8.03;;
3993;SDS011;2011;48.238;13.948;2022-07-29T02:22:04;15.13;;;8.23;;
3993;SDS011;2011;48.238;13.948;2022-07-29T02:24:33;12.27;;;8.03;;
3993;SDS011;2011;48.238;13.948;2022-07-29T02:27:02;12.57;;;7.00;;
3993;SDS011;2011;48.238;13.948;2022-07-29T02:29:30;12.80;;;7.50;;
3993;SDS011;2011;48.238;13.948;2022-07-29T02:32:00;11.97;;;8.30;;
3993;SDS011;2011;48.238;13.948;2022-07-29T02:34:28;12.53;;;8.60;;
3993;SDS011;2011;48.238;13.948;2022-07-29T02:36:56;17.77;;;8.87;;
3993;SDS011;2011;48.238;13.948;2022-07-29T02:39:24;12.93;;;9.43;;
3993;SDS011;2011;48.238;13.948;2022-07-29T02:41:54;13.07;;;8.37;;
3993;SDS011;2011;48.238;13.948;2022-07-29T02:44:27;12.33;;;7.97;;
3993;SDS011;2011;48.238;13.948;2022-07-29T02:46:55;11.13;;;8.50;;
3993;SDS011;2011;48.238;13.948;2022-07-29T02:49:34;14.17;;;7.90;;
3993;SDS011;2011;48.238;13.948;2022-07-29T02:52:03;12.67;;;8.70;;
3993;SDS011;2011;48.238;13.948;2022-07-29T02:54:45;12.37;;;8.17;;
3993;SDS011;2011;48.238;13.948;2022-07-29T02:57:19;12.47;;;7.60;;
3993;SDS011;2011;48.238;13.948;2022-07-29T02:59:48;12.43;;;7.27;;
3993;SDS011;2011;48.238;13.948;2022-07-29T03:02:20;13.73;;;8.00;;
3993;SDS011;2011;48.238;13.948;2022-07-29T03:04:48;13.20;;;8.00;;
3993;SDS011;2011;48.238;13.948;2022-07-29T03:07:17;15.80;;;7.63;;
3993;SDS011;2011;48.238;13.948;2022-07-29T03:09:46;13.83;;;8.03;;
3993;SDS011;2011;48.238;13.948;2022-07-29T03:12:13;10.67;;;7.20;;
3993;SDS011;2011;48.238;13.948;2022-07-29T03:14:42;10.07;;;7.40;;
3993;SDS011;2011;48.238;13.948;2022-07-29T03:17:11;8.43;;;6.73;;
3993;SDS011;2011;48.238;13.948;2022-07-29T03:19:40;12.80;;;7.67;;
3993;SDS011;2011;48.238;13.948;2022-07-29T03:22:08;14.83;;;8.10;;
3993;SDS011;2011;48.238;13.948;2022-07-29T03:24:36;11.83;;;7.80;;
3993;SDS011;2011;48.238;13.948;2022-07-29T03:27:04;16.20;;;8.30;;
3993;SDS011;2011;48.238;13.948;2022-07-29T03:29:31;12.70;;;8.97;;
3993;SDS011;2011;48.238;13.948;2022-07-29T03:31:58;13.53;;;8.87;;
3993;SDS011;2011;48.238;13.948;2022-07-29T03:34:26;19.77;;;8.83;;
3993;SDS011;2011;48.238;13.948;2022-07-29T03:36:54;11.93;;;8.57;;
3993;SDS011;2011;48.238;13.948;2022-07-29T03:39:21;15.30;;;8.13;;
3993;SDS011;2011;48.238;13.948;2022-07-29T03:41:52;22.80;;;9.30;;
3993;SDS011;2011;48.238;13.948;2022-07-29T03:44:22;13.33;;;9.27;;
3993;SDS011;2011;48.238;13.948;2022-07-29T03:46:50;25.73;;;9.27;;
3993;SDS011;2011;48.238;13.948;2022-07-29T03:49:19;13.23;;;9.20;;
3993;SDS011;2011;48.238;13.948;2022-07-29T03:51:47;12.07;;;7.87;;
3993;SDS011;2011;48.238;13.948;2022-07-29T03:54:16;18.70;;;7.90;;
3993;SDS011;2011;48.238;13.948;2022-07-29T03:56:45;14.17;;;7.90;;
3993;SDS011;2011;48.238;13.948;2022-07-29T03:59:15;17.00;;;7.90;;
3993;SDS011;2011;48.238;13.948;2022-07-29T04:01:44;12.43;;;8.47;;
3993;SDS011;2011;48.238;13.948;2022-07-29T04:04:12;16.43;;;8.30;;
3993;SDS011;2011;48.238;13.948;2022-07-29T04:06:40;12.07;;;8.23;;
3993;SDS011;2011;48.238;13.948;2022-07-29T04:09:08;16.57;;;8.10;;
3993;SDS011;2011;48.238;13.948;2022-07-29T04:11:36;13.70;;;7.47;;
3993;SDS011;2011;48.238;13.948;2022-07-29T04:14:06;13.20;;;6.70;;
3993;SDS011;2011;48.238;13.948;2022-07-29T04:16:33;8.43;;;5.90;;
3993;SDS011;2011;48.238;13.948;2022-07-29T04:19:00;12.43;;;7.50;;
3993;SDS011;2011;48.238;13.948;2022-07-29T04:21:27;13.80;;;7.20;;
3993;SDS011;2011;48.238;13.948;2022-07-29T04:23:54;13.93;;;6.70;;
3993;SDS011;2011;48.238;13.948;2022-07-29T04:26:21;12.60;;;6.37;;
3993;SDS011;2011;48.238;13.948;2022-07-29T04:28:49;9.80;;;5.90;;
3993;SDS011;2011;48.238;13.948;2022-07-29T04:31:16;14.03;;;6.60;;
3993;SDS011;2011;48.238;13.948;2022-07-29T04:33:44;9.30;;;6.20;;
3993;SDS011;2011;48.238;13.948;2022-07-29T04:36:11;14.80;;;6.60;;
3993;SDS011;2011;48.238;13.948;2022-07-29T04:38:38;10.77;;;6.80;;
3993;SDS011;2011;48.238;13.948;2022-07-29T04:41:05;16.73;;;6.33;;
3993;SDS011;2011;48.238;13.948;2022-07-29T04:43:33;11.73;;;6.20;;
3993;SDS011;2011;48.238;13.948;2022-07-29T04:46:02;10.80;;;6.03;;
3993;SDS011;2011;48.238;13.948;2022-07-29T04:48:30;12.83;;;6.80;;
3993;SDS011;2011;48.238;13.948;2022-07-29T04:50:57;10.60;;;6.93;;
3993;SDS011;2011;48.238;13.948;2022-07-29T04:53:24;12.70;;;7.33;;
3993;SDS011;2011;48.238;13.948;2022-07-29T04:55:51;14.70;;;8.20;;
3993;SDS011;2011;48.238;13.948;2022-07-29T04:58:18;11.00;;;7.70;;
3993;SDS011;2011;48.238;13.948;2022-07-29T05:00:45;11.40;;;7.03;;
3993;SDS011;2011;48.238;13.948;2022-07-29T05:03:14;12.70;;;6.63;;
3993;SDS011;2011;48.238;13.948;2022-07-29T05:05:41;9.70;;;6.27;;
3993;SDS011;2011;48.238;13.948;2022-07-29T05:08:08;12.30;;;6.53;;
3993;SDS011;2011;48.238;13.948;2022-07-29T05:10:35;10.43;;;6.20;;
3993;SDS011;2011;48.238;13.948;2022-07-29T05:13:03;11.47;;;6.47;;
3993;SDS011;2011;48.238;13.948;2022-07-29T05:15:31;9.60;;;6.30;;
3993;SDS011;2011;48.238;13.948;2022-07-29T05:17:58;14.83;;;6.50;;
3993;SDS011;2011;48.238;13.948;2022-07-29T05:20:27;11.17;;;5.77;;
3993;SDS011;2011;48.238;13.948;2022-07-29T05:22:54;8.40;;;5.70;;
3993;SDS011;2011;48.238;13.948;2022-07-29T05:25:22;8.57;;;5.63;;
3993;SDS011;2011;48.238;13.948;2022-07-29T05:27:49;9.87;;;6.20;;
3993;SDS011;2011;48.238;13.948;2022-07-29T05:30:16;14.33;;;6.47;;
3993;SDS011;2011;48.238;13.948;2022-07-29T05:32:44;19.50;;;6.40;;
3993;SDS011;2011;48.238;13.948;2022-07-29T05:35:11;12.53;;;6.20;;
3993;SDS011;2011;48.238;13.948;2022-07-29T05:37:40;12.60;;;6.60;;
3993;SDS011;2011;48.238;13.948;2022-07-29T05:40:07;12.27;;;6.50;;
3993;SDS011;2011;48.238;13.948;2022-07-29T05:42:35;16.33;;;6.83;;
3993;SDS011;2011;48.238;13.948;2022-07-29T05:45:02;8.20;;;6.47;;
3993;SDS011;2011;48.238;13.948;2022-07-29T05:47:30;16.03;;;7.50;;
3993;SDS011;2011;48.238;13.948;2022-07-29T05:49:57;14.57;;;7.70;;
3993;SDS011;2011;48.238;13.948;2022-07-29T05:52:24;13.30;;;6.83;;
3993;SDS011;2011;48.238;13.948;2022-07-29T05:54:52;10.60;;;6.50;;
3993;SDS011;2011;48.238;13.948;2022-07-29T05:57:20;10.57;;;6.93;;
3993;SDS011;2011;48.238;13.948;2022-07-29T05:59:48;10.30;;;6.33;;
3993;SDS011;2011;48.238;13.948;2022-07-29T06:02:16;9.30;;;7.00;;
3993;SDS011;2011;48.238;13.948;2022-07-29T06:04:43;10.23;;;6.80;;
3993;SDS011;2011;48.238;13.948;2022-07-29T06:07:10;12.30;;;6.83;;
3993;SDS011;2011;48.238;13.948;2022-07-29T06:09:37;16.20;;;7.17;;
3993;SDS011;2011;48.238;13.948;2022-07-29T06:12:06;10.50;;;6.90;;
3993;SDS011;2011;48.238;13.948;2022-07-29T06:14:33;10.93;;;7.70;;
3993;SDS011;2011;48.238;13.948;2022-07-29T06:17:00;10.03;;;6.63;;
3993;SDS011;2011;48.238;13.948;2022-07-29T06:19:27;10.10;;;6.77;;
3993;SDS011;2011;48.238;13.948;2022-07-29T06:21:55;20.30;;;7.10;;
3993;SDS011;2011;48.238;13.948;2022-07-29T06:24:22;11.43;;;6.33;;
3993;SDS011;2011;48.238;13.948;2022-07-29T06:26:49;10.60;;;6.50;;
3993;SDS011;2011;48.238;13.948;2022-07-29T06:29:17;9.30;;;6.37;;
3993;SDS011;2011;48.238;13.948;2022-07-29T06:31:44;9.17;;;6.20;;
3993;SDS011;2011;48.238;13.948;2022-07-29T06:34:11;15.77;;;6.80;;
3993;SDS011;2011;48.238;13.948;2022-07-29T06:36:38;11.27;;;7.20;;
3993;SDS011;2011;48.238;13.948;2022-07-29T06:39:06;9.10;;;6.47;;
3993;SDS011;2011;48.238;13.948;2022-07-29T06:41:34;14.03;;;6.93;;
3993;SDS011;2011;48.238;13.948;2022-07-29T06:44:01;11.83;;;7.00;;
3993;SDS011;2011;48.238;13.948;2022-07-29T06:46:31;11.33;;;7.53;;
3993;SDS011;2011;48.238;13.948;2022-07-29T06:48:58;15.50;;;7.17;;
3993;SDS011;2011;48.238;13.948;2022-07-29T06:51:26;12.70;;;6.90;;
3993;SDS011;2011;48.238;13.948;2022-07-29T06:53:53;10.00;;;6.67;;
3993;SDS011;2011;48.238;13.948;2022-07-29T06:56:20;19.27;;;7.13;;
3993;SDS011;2011;48.238;13.948;2022-07-29T06:58:47;16.50;;;6.97;;
3993;SDS011;2011;48.238;13.948;2022-07-29T07:01:14;27.33;;;7.17;;
3993;SDS011;2011;48.238;13.948;2022-07-29T07:03:42;17.97;;;7.20;;
3993;SDS011;2011;48.238;13.948;2022-07-29T07:06:09;19.37;;;7.50;;
3993;SDS011;2011;48.238;13.948;2022-07-29T07:08:36;14.83;;;6.50;;
3993;SDS011;2011;48.238;13.948;2022-07-29T07:11:03;15.43;;;7.87;;
3993;SDS011;2011;48.238;13.948;2022-07-29T07:13:32;13.13;;;6.70;;
3993;SDS011;2011;48.238;13.948;2022-07-29T07:16:00;12.13;;;7.97;;
3993;SDS011;2011;48.238;13.948;2022-07-29T07:18:27;9.70;;;6.97;;
3993;SDS011;2011;48.238;13.948;2022-07-29T07:20:55;15.97;;;7.53;;
3993;SDS011;2011;48.238;13.948;2022-07-29T07:23:23;13.03;;;7.50;;
3993;SDS011;2011;48.238;13.948;2022-07-29T07:25:50;12.70;;;6.90;;
3993;SDS011;2011;48.238;13.948;2022-07-29T07:28:18;11.90;;;7.57;;
3993;SDS011;2011;48.238;13.948;2022-07-29T07:30:45;12.30;;;6.90;;
3993;SDS011;2011;48.238;13.948;2022-07-29T07:33:12;19.17;;;7.03;;
3993;SDS011;2011;48.238;13.948;2022-07-29T07:35:40;11.13;;;7.10;;
3993;SDS011;2011;48.238;13.948;2022-07-29T07:38:09;21.07;;;7.20;;
3993;SDS011;2011;48.238;13.948;2022-07-29T07:40:36;16.70;;;7.90;;
3993;SDS011;2011;48.238;13.948;2022-07-29T07:43:03;12.80;;;6.93;;
3993;SDS011;2011;48.238;13.948;2022-07-29T07:45:30;23.70;;;7.83;;
3993;SDS011;2011;48.238;13.948;2022-07-29T07:47:58;13.50;;;6.80;;
3993;SDS011;2011;48.238;13.948;2022-07-29T07:50:25;18.17;;;9.10;;
3993;SDS011;2011;48.238;13.948;2022-07-29T07:52:53;17.60;;;7.20;;
3993;SDS011;2011;48.238;13.948;2022-07-29T07:55:24;17.50;;;7.50;;
3993;SDS011;2011;48.238;13.948;2022-07-29T07:57:52;20.77;;;7.87;;
3993;SDS011;2011;48.238;13.948;2022-07-29T08:00:19;18.87;;;7.47;;
3993;SDS011;2011;48.238;13.948;2022-07-29T08:02:46;18.43;;;7.47;;
3993;SDS011;2011;48.238;13.948;2022-07-29T08:05:14;15.13;;;7.60;;
3993;SDS011;2011;48.238;13.948;2022-07-29T08:07:43;19.00;;;7.80;;
3993;SDS011;2011;48.238;13.948;2022-07-29T08:10:11;23.00;;;6.80;;
3993;SDS011;2011;48.238;13.948;2022-07-29T08:12:40;20.43;;;7.70;;
3993;SDS011;2011;48.238;13.948;2022-07-29T08:15:07;14.13;;;7.00;;
3993;SDS011;2011;48.238;13.948;2022-07-29T08:17:35;29.57;;;8.80;;
3993;SDS011;2011;48.238;13.948;2022-07-29T08:20:02;15.07;;;8.07;;
3993;SDS011;2011;48.238;13.948;2022-07-29T08:22:30;17.47;;;7.53;;
3993;SDS011;2011;48.238;13.948;2022-07-29T08:24:57;22.87;;;8.03;;
3993;SDS011;2011;48.238;13.948;2022-07-29T08:27:24;16.80;;;8.73;;
3993;SDS011;2011;48.238;13.948;2022-07-29T08:29:54;19.27;;;8.10;;
3993;SDS011;2011;48.238;13.948;2022-07-29T08:32:22;13.73;;;7.33;;
3993;SDS011;2011;48.238;13.948;2022-07-29T08:34:49;14.30;;;6.70;;
3993;SDS011;2011;48.238;13.948;2022-07-29T08:37:16;13.00;;;8.00;;
3993;SDS011;2011;48.238;13.948;2022-07-29T08:39:43;18.50;;;8.03;;
3993;SDS011;2011;48.238;13.948;2022-07-29T08:42:10;27.73;;;7.90;;
3993;SDS011;2011;48.238;13.948;2022-07-29T08:44:38;16.53;;;8.00;;
3993;SDS011;2011;48.238;13.948;2022-07-29T08:47:07;20.83;;;7.90;;
3993;SDS011;2011;48.238;13.948;2022-07-29T08:49:34;21.63;;;8.73;;
3993;SDS011;2011;48.238;13.948;2022-07-29T08:52:01;21.23;;;7.50;;
3993;SDS011;2011;48.238;13.948;2022-07-29T08:54:29;13.70;;;7.40;;
3993;SDS011;2011;48.238;13.948;2022-07-29T08:56:56;14.60;;;7.80;;
3993;SDS011;2011;48.238;13.948;2022-07-29T08:59:24;27.90;;;7.40;;
3993;SDS011;2011;48.238;13.948;2022-07-29T09:01:53;11.23;;;6.80;;
3993;SDS011;2011;48.238;13.948;2022-07-29T09:04:21;11.97;;;7.00;;
3993;SDS011;2011;48.238;13.948;2022-07-29T09:06:53;16.87;;;7.33;;
3993;SDS011;2011;48.238;13.948;2022-07-29T09:09:23;14.27;;;7.07;;
3993;SDS011;2011;48.238;13.948;2022-07-29T09:11:53;15.17;;;7.60;;
3993;SDS011;2011;48.238;13.948;2022-07-29T09:14:20;22.30;;;8.20;;
3993;SDS011;2011;48.238;13.948;2022-07-29T09:16:48;12.20;;;7.67;;
3993;SDS011;2011;48.238;13.948;2022-07-29T09:19:22;10.90;;;7.07;;
3993;SDS011;2011;48.238;13.948;2022-07-29T09:21:51;16.37;;;8.07;;
3993;SDS011;2011;48.238;13.948;2022-07-29T09:27:11;17.33;;;8.77;;
3993;SDS011;2011;48.238;13.948;2022-07-29T09:29:48;15.60;;;8.90;;
3993;SDS011;2011;48.238;13.948;2022-07-29T09:32:23;18.70;;;7.70;;
3993;SDS011;2011;48.238;13.948;2022-07-29T09:34:52;13.10;;;7.47;;
3993;SDS011;2011;48.238;13.948;2022-07-29T09:37:40;14.10;;;8.50;;
3993;SDS011;2011;48.238;13.948;2022-07-29T09:40:10;21.13;;;9.43;;
3993;SDS011;2011;48.238;13.948;2022-07-29T09:42:38;18.27;;;8.53;;
3993;SDS011;2011;48.238;13.948;2022-07-29T09:45:06;14.33;;;7.87;;
3993;SDS011;2011;48.238;13.948;2022-07-29T09:47:41;11.77;;;7.37;;
3993;SDS011;2011;48.238;13.948;2022-07-29T09:50:13;16.63;;;8.00;;
3993;SDS011;2011;48.238;13.948;2022-07-29T09:52:47;14.03;;;8.40;;
3993;SDS011;2011;48.238;13.948;2022-07-29T09:55:15;15.80;;;7.93;;
3993;SDS011;2011;48.238;13.948;2022-07-29T09:57:44;19.07;;;8.00;;
3993;SDS011;2011;48.238;13.948;2022-07-29T10:00:12;11.27;;;7.03;;
3993;SDS011;2011;48.238;13.948;2022-07-29T10:02:41;11.47;;;5.80;;
3993;SDS011;2011;48.238;13.948;2022-07-29T10:05:18;6.97;;;4.70;;
3993;SDS011;2011;48.238;13.948;2022-07-29T10:07:46;8.63;;;3.87;;
3993;SDS011;2011;48.238;13.948;2022-07-29T10:10:19;5.63;;;3.47;;
3993;SDS011;2011;48.238;13.948;2022-07-29T10:12:51;19.27;;;3.50;;
3993;SDS011;2011;48.238;13.948;2022-07-29T10:15:21;7.13;;;3.43;;
3993;SDS011;2011;48.238;13.948;2022-07-29T10:17:50;7.80;;;3.87;;
3993;SDS011;2011;48.238;13.948;2022-07-29T10:20:19;11.27;;;4.00;;
3993;SDS011;2011;48.238;13.948;2022-07-29T10:22:46;7.07;;;4.40;;
3993;SDS011;2011;48.238;13.948;2022-07-29T10:25:14;6.93;;;4.23;;
3993;SDS011;2011;48.238;13.948;2022-07-29T10:27:42;6.73;;;3.90;;
3993;SDS011;2011;48.238;13.948;2022-07-29T10:30:10;10.97;;;4.40;;
3993;SDS011;2011;48.238;13.948;2022-07-29T10:32:46;12.97;;;3.80;;
3993;SDS011;2011;48.238;13.948;2022-07-29T10:35:47;9.27;;;4.10;;
3993;SDS011;2011;48.238;13.948;2022-07-29T10:41:27;8.57;;;4.50;;
3993;SDS011;2011;48.238;13.948;2022-07-29T10:44:14;6.70;;;4.10;;
3993;SDS011;2011;48.238;13.948;2022-07-29T10:46:43;6.73;;;3.70;;
3993;SDS011;2011;48.238;13.948;2022-07-29T10:49:11;12.50;;;4.23;;
3993;SDS011;2011;48.238;13.948;2022-07-29T10:51:54;10.20;;;4.27;;
3993;SDS011;2011;48.238;13.948;2022-07-29T10:54:36;8.57;;;4.00;;
3993;SDS011;2011;48.238;13.948;2022-07-29T10:57:15;7.87;;;3.50;;
3993;SDS011;2011;48.238;13.948;2022-07-29T11:02:52;6.20;;;3.37;;
3993;SDS011;2011;48.238;13.948;2022-07-29T11:05:21;9.70;;;4.37;;
3993;SDS011;2011;48.238;13.948;2022-07-29T11:10:48;6.63;;;3.03;;
3993;SDS011;2011;48.238;13.948;2022-07-29T11:16:22;10.17;;;4.33;;
3993;SDS011;2011;48.238;13.948;2022-07-29T11:21:45;9.47;;;4.20;;
3993;SDS011;2011;48.238;13.948;2022-07-29T11:24:16;13.80;;;4.50;;
3993;SDS011;2011;48.238;13.948;2022-07-29T11:26:46;7.97;;;3.63;;
3993;SDS011;2011;48.238;13.948;2022-07-29T11:29:33;11.13;;;3.90;;
3993;SDS011;2011;48.238;13.948;2022-07-29T11:32:10;7.20;;;4.17;;
3993;SDS011;2011;48.238;13.948;2022-07-29T11:34:39;7.50;;;3.97;;
3993;SDS011;2011;48.238;13.948;2022-07-29T11:37:22;17.53;;;4.60;;
3993;SDS011;2011;48.238;13.948;2022-07-29T11:42:47;10.80;;;4.47;;
3993;SDS011;2011;48.238;13.948;2022-07-29T11:45:19;11.00;;;3.80;;
3993;SDS011;2011;48.238;13.948;2022-07-29T11:47:48;11.80;;;4.30;;
3993;SDS011;2011;48.238;13.948;2022-07-29T11:50:18;8.23;;;4.03;;
3993;SDS011;2011;48.238;13.948;2022-07-29T11:52:54;10.17;;;3.80;;
3993;SDS011;2011;48.238;13.948;2022-07-29T11:55:22;14.40;;;4.60;;
3993;SDS011;2011;48.238;13.948;2022-07-29T11:57:51;10.30;;;4.23;;
3993;SDS011;2011;48.238;13.948;2022-07-29T12:00:29;16.20;;;4.33;;
3993;SDS011;2011;48.238;13.948;2022-07-29T12:02:58;9.03;;;3.70;;
3993;SDS011;2011;48.238;13.948;2022-07-29T12:05:33;8.83;;;3.80;;
3993;SDS011;2011;48.238;13.948;2022-07-29T12:08:12;7.47;;;3.87;;
3993;SDS011;2011;48.238;13.948;2022-07-29T12:10:42;9.30;;;3.63;;
3993;SDS011;2011;48.238;13.948;2022-07-29T12:13:11;6.00;;;3.40;;
3993;SDS011;2011;48.238;13.948;2022-07-29T12:15:40;5.73;;;3.20;;
3993;SDS011;2011;48.238;13.948;2022-07-29T12:18:09;7.23;;;4.10;;
3993;SDS011;2011;48.238;13.948;2022-07-29T12:20:37;8.93;;;3.30;;
3993;SDS011;2011;48.238;13.948;2022-07-29T12:23:04;6.57;;;3.00;;
3993;SDS011;2011;48.238;13.948;2022-07-29T12:25:33;5.10;;;3.50;;
3993;SDS011;2011;48.238;13.948;2022-07-29T12:28:04;7.53;;;3.90;;
3993;SDS011;2011;48.238;13.948;2022-07-29T12:30:35;6.90;;;3.33;;
3993;SDS011;2011;48.238;13.948;2022-07-29T12:35:48;9.03;;;3.30;;
3993;SDS011;2011;48.238;13.948;2022-07-29T12:38:17;7.23;;;3.23;;
3993;SDS011;2011;48.238;13.948;2022-07-29T12:40:45;8.43;;;3.30;;
3993;SDS011;2011;48.238;13.948;2022-07-29T12:43:15;12.03;;;3.03;;
3993;SDS011;2011;48.238;13.948;2022-07-29T12:45:44;6.90;;;3.70;;
3993;SDS011;2011;48.238;13.948;2022-07-29T12:48:12;8.87;;;3.40;;
3993;SDS011;2011;48.238;13.948;2022-07-29T12:50:53;9.00;;;3.70;;
3993;SDS011;2011;48.238;13.948;2022-07-29T12:53:21;7.37;;;3.47;;
3993;SDS011;2011;48.238;13.948;2022-07-29T12:55:49;7.03;;;3.30;;
3993;SDS011;2011;48.238;13.948;2022-07-29T12:58:32;9.13;;;3.53;;
3993;SDS011;2011;48.238;13.948;2022-07-29T13:01:01;12.90;;;3.67;;
3993;SDS011;2011;48.238;13.948;2022-07-29T13:03:40;9.90;;;3.57;;
3993;SDS011;2011;48.238;13.948;2022-07-29T13:08:58;5.77;;;3.10;;
3993;SDS011;2011;48.238;13.948;2022-07-29T13:11:33;8.80;;;3.00;;
3993;SDS011;2011;48.238;13.948;2022-07-29T13:14:03;9.33;;;3.27;;
3993;SDS011;2011;48.238;13.948;2022-07-29T13:16:31;4.80;;;3.17;;
3993;SDS011;2011;48.238;13.948;2022-07-29T13:19:08;7.33;;;3.37;;
3993;SDS011;2011;48.238;13.948;2022-07-29T13:21:37;6.30;;;3.03;;
3993;SDS011;2011;48.238;13.948;2022-07-29T13:24:05;5.60;;;2.63;;
3993;SDS011;2011;48.238;13.948;2022-07-29T13:26:33;14.03;;;3.10;;
3993;SDS011;2011;48.238;13.948;2022-07-29T13:29:01;7.27;;;3.10;;
3993;SDS011;2011;48.238;13.948;2022-07-29T13:31:30;9.90;;;3.00;;
3993;SDS011;2011;48.238;13.948;2022-07-29T13:33:57;14.13;;;3.00;;
3993;SDS011;2011;48.238;13.948;2022-07-29T13:36:23;7.57;;;3.20;;
3993;SDS011;2011;48.238;13.948;2022-07-29T13:38:51;7.70;;;2.83;;
3993;SDS011;2011;48.238;13.948;2022-07-29T13:41:18;11.60;;;3.50;;
3993;SDS011;2011;48.238;13.948;2022-07-29T13:43:45;7.40;;;3.50;;
3993;SDS011;2011;48.238;13.948;2022-07-29T13:46:14;6.70;;;2.80;;
3993;SDS011;2011;48.238;13.948;2022-07-29T13:48:40;8.90;;;3.30;;
3993;SDS011;2011;48.238;13.948;2022-07-29T13:51:07;6.83;;;3.33;;
3993;SDS011;2011;48.238;13.948;2022-07-29T13:53:34;7.97;;;3.07;;
3993;SDS011;2011;48.238;13.948;2022-07-29T13:56:01;5.17;;;2.97;;
3993;SDS011;2011;48.238;13.948;2022-07-29T13:58:30;5.37;;;2.80;;
3993;SDS011;2011;48.238;13.948;2022-07-29T14:00:57;4.93;;;2.73;;
3993;SDS011;2011;48.238;13.948;2022-07-29T14:03:26;7.00;;;3.17;;
3993;SDS011;2011;48.238;13.948;2022-07-29T14:05:53;7.90;;;3.07;;
3993;SDS011;2011;48.238;13.948;2022-07-29T14:08:21;8.53;;;3.23;;
3993;SDS011;2011;48.238;13.948;2022-07-29T14:10:48;6.30;;;3.23;;
3993;SDS011;2011;48.238;13.948;2022-07-29T14:13:15;9.37;;;3.00;;
3993;SDS011;2011;48.238;13.948;2022-07-29T14:15:42;8.20;;;3.10;;
3993;SDS011;2011;48.238;13.948;2022-07-29T14:18:09;8.90;;;2.93;;
3993;SDS011;2011;48.238;13.948;2022-07-29T14:20:37;6.60;;;3.00;;
3993;SDS011;2011;48.238;13.948;2022-07-29T14:23:04;9.47;;;2.80;;
3993;SDS011;2011;48.238;13.948;2022-07-29T14:25:31;5.90;;;3.03;;
3993;SDS011;2011;48.238;13.948;2022-07-29T14:27:58;9.23;;;3.07;;
3993;SDS011;2011;48.238;13.948;2022-07-29T14:30:25;7.63;;;2.70;;
3993;SDS011;2011;48.238;13.948;2022-07-29T14:32:52;7.83;;;2.70;;
3993;SDS011;2011;48.238;13.948;2022-07-29T14:35:19;7.57;;;2.60;;
3993;SDS011;2011;48.238;13.948;2022-07-29T14:37:47;4.70;;;2.40;;
3993;SDS011;2011;48.238;13.948;2022-07-29T14:40:14;8.43;;;2.70;;
3993;SDS011;2011;48.238;13.948;2022-07-29T14:42:41;6.83;;;2.57;;
3993;SDS011;2011;48.238;13.948;2022-07-29T14:45:09;4.97;;;2.63;;
3993;SDS011;2011;48.238;13.948;2022-07-29T14:47:36;4.10;;;2.17;;
3993;SDS011;2011;48.238;13.948;2022-07-29T14:50:04;4.70;;;2.50;;
3993;SDS011;2011;48.238;13.948;2022-07-29T14:52:32;15.60;;;2.73;;
3993;SDS011;2011;48.238;13.948;2022-07-29T14:55:00;6.67;;;3.00;;
3993;SDS011;2011;48.238;13.948;2022-07-29T14:57:27;5.00;;;2.40;;
3993;SDS011;2011;48.238;13.948;2022-07-29T14:59:54;5.40;;;2.40;;
3993;SDS011;2011;48.238;13.948;2022-07-29T15:02:21;6.10;;;2.10;;
3993;SDS011;2011;48.238;13.948;2022-07-29T15:04:48;5.23;;;2.87;;
3993;SDS011;2011;48.238;13.948;2022-07-29T15:07:15;7.10;;;2.30;;
3993;SDS011;2011;48.238;13.948;2022-07-29T15:09:42;6.10;;;2.60;;
3993;SDS011;2011;48.238;13.948;2022-07-29T15:12:11;6.20;;;2.60;;
3993;SDS011;2011;48.238;13.948;2022-07-29T15:14:38;5.80;;;2.30;;
3993;SDS011;2011;48.238;13.948;2022-07-29T15:17:05;4.57;;;2.33;;
3993;SDS011;2011;48.238;13.948;2022-07-29T15:19:32;6.60;;;2.40;;
3993;SDS011;2011;48.238;13.948;2022-07-29T15:21:59;12.80;;;2.67;;
3993;SDS011;2011;48.238;13.948;2022-07-29T15:24:26;6.47;;;2.90;;
3993;SDS011;2011;48.238;13.948;2022-07-29T15:26:54;4.10;;;2.43;;
3993;SDS011;2011;48.238;13.948;2022-07-29T15:29:22;12.10;;;3.03;;
3993;SDS011;2011;48.238;13.948;2022-07-29T15:31:49;9.70;;;2.77;;